createdAt,value
2019-05-30T00:02:06.209Z,44.80
2019-05-30T00:04:39.207Z,42.60
2019-05-30T00:07:12.138Z,45.40
2019-05-30T00:09:45.138Z,44.40
2019-05-30T00:12:18.084Z,42.40
2019-05-30T00:14:51.056Z,47.40
2019-05-30T00:17:24.002Z,43.00
2019-05-30T00:19:57.310Z,47.00
2019-05-30T00:22:30.232Z,49.60
2019-05-30T00:25:04.318Z,46.20
2019-05-30T00:27:37.240Z,50.40
2019-05-30T00:30:23.758Z,46.00
2019-05-30T00:32:45.819Z,47.20
2019-05-30T00:35:18.866Z,49.80
2019-05-30T00:37:51.810Z,48.60
2019-05-30T00:40:24.889Z,48.60
2019-05-30T00:42:57.916Z,46.60
2019-05-30T00:45:30.967Z,49.40
2019-05-30T00:48:04.394Z,46.40
2019-05-30T00:50:37.509Z,50.00
2019-05-30T00:53:10.901Z,54.60
2019-05-30T00:55:44.176Z,47.00
2019-05-30T00:58:17.184Z,48.00
2019-05-30T01:00:50.418Z,47.00
2019-05-30T01:03:23.388Z,44.00
2019-05-30T01:05:56.706Z,45.40
2019-05-30T01:08:29.636Z,45.80
2019-05-30T01:11:03.156Z,44.60
2019-05-30T01:13:36.269Z,47.00
2019-05-30T01:16:09.247Z,45.40
2019-05-30T01:18:42.464Z,46.20
2019-05-30T01:21:15.408Z,47.80
2019-05-30T01:23:48.387Z,46.40
2019-05-30T01:26:21.440Z,47.40
2019-05-30T01:28:54.425Z,44.20
2019-05-30T01:31:27.391Z,48.20
2019-05-30T01:34:01.527Z,44.20
2019-05-30T01:36:34.674Z,46.80
2019-05-30T01:39:08.131Z,49.60
2019-05-30T01:41:41.286Z,43.60
2019-05-30T01:44:14.185Z,46.60
2019-05-30T01:46:47.196Z,50.40
2019-05-30T01:49:20.226Z,48.80
2019-05-30T01:51:53.316Z,46.40
2019-05-30T01:54:26.230Z,43.40
2019-05-30T01:57:00.482Z,47.40
2019-05-30T01:59:33.488Z,46.20
2019-05-30T02:02:07.231Z,49.00
2019-05-30T02:04:40.383Z,49.40
2019-05-30T02:07:13.334Z,44.20
2019-05-30T02:09:46.312Z,46.00
2019-05-30T02:12:19.350Z,49.40
2019-05-30T02:14:52.347Z,36.00
2019-05-30T02:17:25.381Z,44.80
2019-05-30T02:19:59.569Z,45.80
2019-05-30T02:22:32.819Z,44.80
2019-05-30T02:25:06.402Z,45.80
2019-05-30T02:27:39.368Z,39.00
2019-05-30T02:30:15.067Z,46.80
2019-05-30T02:32:47.632Z,48.80
2019-05-30T02:35:20.802Z,44.20
2019-05-30T02:37:53.853Z,44.20
2019-05-30T02:40:29.054Z,46.60
2019-05-30T02:43:03.616Z,47.00
2019-05-30T02:45:36.925Z,46.60
2019-05-30T02:48:11.908Z,48.20
2019-05-30T02:50:44.777Z,40.00
2019-05-30T02:53:17.756Z,50.20
2019-05-30T02:55:51.016Z,42.20
2019-05-30T02:58:24.218Z,40.20
2019-05-30T03:00:57.212Z,40.80
2019-05-30T03:03:30.491Z,40.80
2019-05-30T03:06:03.918Z,35.60
2019-05-30T03:08:37.674Z,39.40
2019-05-30T03:11:15.139Z,37.40
2019-05-30T03:13:46.055Z,39.40
2019-05-30T03:16:19.068Z,36.00
2019-05-30T03:18:52.475Z,29.40
2019-05-30T03:21:25.422Z,31.40
2019-05-30T03:23:58.728Z,40.60
2019-05-30T03:26:31.749Z,33.20
2019-05-30T03:29:05.552Z,38.40
2019-05-30T03:31:40.651Z,35.00
2019-05-30T03:34:25.602Z,38.80
2019-05-30T03:36:48.599Z,38.00
2019-05-30T03:39:22.047Z,40.60
2019-05-30T03:41:54.962Z,36.80
2019-05-30T03:44:28.388Z,33.80
2019-05-30T03:47:06.327Z,37.00
2019-05-30T03:49:42.529Z,35.40
2019-05-30T03:52:17.638Z,40.80
2019-05-30T03:54:51.346Z,38.00
2019-05-30T03:57:29.022Z,33.20
2019-05-30T04:00:09.436Z,33.60
2019-05-30T04:02:58.899Z,36.80
2019-05-30T04:05:35.184Z,39.00
2019-05-30T04:08:12.352Z,37.40
2019-05-30T04:10:48.029Z,33.60
2019-05-30T04:13:26.131Z,32.20
2019-05-30T04:15:59.106Z,36.80
2019-05-30T04:18:32.321Z,35.60
2019-05-30T04:21:05.331Z,30.00
2019-05-30T04:23:38.337Z,38.20
2019-05-30T04:26:11.550Z,37.60
2019-05-30T04:28:44.587Z,33.60
2019-05-30T04:31:19.401Z,34.60
2019-05-30T04:33:52.614Z,24.60
2019-05-30T04:36:25.574Z,31.60
2019-05-30T04:38:58.850Z,33.40
2019-05-30T04:41:31.889Z,32.60
2019-05-30T04:44:04.943Z,33.80
2019-05-30T04:46:38.049Z,33.40
2019-05-30T04:49:12.380Z,37.80
2019-05-30T04:51:46.045Z,38.20
2019-05-30T04:54:21.171Z,33.60
2019-05-30T04:56:54.272Z,45.40
2019-05-30T04:59:27.187Z,36.00
2019-05-30T05:02:00.732Z,42.00
2019-05-30T05:04:33.660Z,35.80
2019-05-30T05:07:06.639Z,42.60
2019-05-30T05:09:39.540Z,41.20
2019-05-30T05:12:13.891Z,36.20
2019-05-30T05:14:46.846Z,36.80
2019-05-30T05:17:20.955Z,27.80
2019-05-30T05:19:54.022Z,35.40
2019-05-30T05:22:26.985Z,35.00
2019-05-30T05:25:00.008Z,32.00
2019-05-30T05:27:32.984Z,32.60
2019-05-30T05:30:07.647Z,35.80
2019-05-30T05:32:40.964Z,37.40
2019-05-30T05:35:14.787Z,33.00
2019-05-30T05:37:48.213Z,32.60
2019-05-30T05:40:22.366Z,31.60
2019-05-30T05:42:55.468Z,28.60
2019-05-30T05:45:28.790Z,35.80
2019-05-30T05:48:01.814Z,32.40
2019-05-30T05:50:34.768Z,32.40
2019-05-30T05:53:07.985Z,33.20
2019-05-30T05:55:40.875Z,30.40
2019-05-30T05:58:14.010Z,28.20
2019-05-30T06:00:47.128Z,30.80
2019-05-30T06:03:20.443Z,32.80
2019-05-30T06:05:53.874Z,30.00
2019-05-30T06:08:27.686Z,35.60
2019-05-30T06:11:00.764Z,30.40
2019-05-30T06:13:33.745Z,30.80
2019-05-30T06:16:06.632Z,31.60
2019-05-30T06:18:39.699Z,29.80
2019-05-30T06:21:12.979Z,29.80
2019-05-30T06:23:46.224Z,27.40
2019-05-30T06:26:19.950Z,29.40
2019-05-30T06:28:52.936Z,27.40
2019-05-30T06:31:26.571Z,30.20
2019-05-30T06:33:59.812Z,28.00
2019-05-30T06:36:32.736Z,26.80
2019-05-30T06:39:07.509Z,26.60
2019-05-30T06:41:40.676Z,26.80
2019-05-30T06:44:13.897Z,28.00
2019-05-30T06:46:46.808Z,28.40
2019-05-30T06:49:20.621Z,28.40
2019-05-30T06:51:53.592Z,29.00
2019-05-30T06:54:27.841Z,27.00
2019-05-30T06:57:00.888Z,23.40
2019-05-30T06:59:33.926Z,29.40
2019-05-30T07:02:06.983Z,30.40
2019-05-30T07:04:51.119Z,28.40
2019-05-30T07:07:14.932Z,28.40
2019-05-30T07:09:48.045Z,29.20
2019-05-30T07:12:21.333Z,27.20
2019-05-30T07:14:54.341Z,27.40
2019-05-30T07:17:27.487Z,32.60
2019-05-30T07:20:00.637Z,26.80
2019-05-30T07:22:33.887Z,28.00
2019-05-30T07:25:07.631Z,28.60
2019-05-30T07:27:40.610Z,25.40
2019-05-30T07:30:14.178Z,25.80
2019-05-30T07:32:47.038Z,27.20
2019-05-30T07:35:20.164Z,28.20
2019-05-30T07:37:53.033Z,15.00
2019-05-30T07:40:26.597Z,24.80
2019-05-30T07:42:59.637Z,32.40
2019-05-30T07:45:33.174Z,28.20
2019-05-30T07:48:06.341Z,25.80
2019-05-30T07:50:39.641Z,24.80
2019-05-30T07:53:12.533Z,29.80
2019-05-30T07:55:46.330Z,29.60
2019-05-30T07:58:19.313Z,23.60
2019-05-30T08:00:52.391Z,30.40
2019-05-30T08:03:26.392Z,21.80
2019-05-30T08:06:00.039Z,23.60
2019-05-30T08:08:33.911Z,26.00
2019-05-30T08:11:09.924Z,26.20
2019-05-30T08:13:41.665Z,23.20
2019-05-30T08:16:14.609Z,21.60
2019-05-30T08:18:47.673Z,24.40
2019-05-30T08:21:20.654Z,25.60
2019-05-30T08:23:53.698Z,28.60
2019-05-30T08:26:28.001Z,24.00
2019-05-30T08:29:01.189Z,27.40
2019-05-30T08:31:34.602Z,26.60
2019-05-30T08:34:07.634Z,21.20
2019-05-30T08:36:40.568Z,23.80
2019-05-30T08:39:13.494Z,27.20
2019-05-30T08:41:46.554Z,25.40
2019-05-30T08:44:19.430Z,22.40
2019-05-30T08:46:52.563Z,29.20
2019-05-30T08:49:25.493Z,20.60
2019-05-30T08:51:58.693Z,24.00
2019-05-30T08:54:32.229Z,22.20
2019-05-30T08:57:05.505Z,22.20
2019-05-30T08:59:38.814Z,20.00
2019-05-30T09:02:11.880Z,28.20
2019-05-30T09:04:45.989Z,22.40
2019-05-30T09:07:19.159Z,25.40
2019-05-30T09:09:52.046Z,23.40
2019-05-30T09:12:24.987Z,22.00
2019-05-30T09:14:57.870Z,22.20
2019-05-30T09:17:30.942Z,26.20
2019-05-30T09:20:05.975Z,25.60
2019-05-30T09:22:39.851Z,22.80
2019-05-30T09:25:13.261Z,23.20
2019-05-30T09:27:46.706Z,25.20
2019-05-30T09:30:20.440Z,18.40
2019-05-30T09:32:53.381Z,22.20
2019-05-30T09:35:26.396Z,18.00
2019-05-30T09:37:59.684Z,27.40
2019-05-30T09:40:34.059Z,24.20
2019-05-30T09:43:07.082Z,23.00
2019-05-30T09:45:41.242Z,25.80
2019-05-30T09:48:14.794Z,23.60
2019-05-30T09:50:48.801Z,21.80
2019-05-30T09:53:21.990Z,20.60
2019-05-30T09:55:55.643Z,21.80
2019-05-30T09:58:28.629Z,23.00
2019-05-30T10:01:01.542Z,22.20
2019-05-30T10:03:34.444Z,18.60
2019-05-30T10:06:07.349Z,20.80
2019-05-30T10:08:40.519Z,20.80
2019-05-30T10:11:16.090Z,19.80
2019-05-30T10:13:49.162Z,24.20
2019-05-30T10:16:22.515Z,21.00
2019-05-30T10:18:55.417Z,26.00
2019-05-30T10:21:28.253Z,21.00
2019-05-30T10:24:01.142Z,13.20
2019-05-30T10:26:34.309Z,20.60
2019-05-30T10:29:07.290Z,21.00
2019-05-30T10:31:40.202Z,23.40
2019-05-30T10:34:13.210Z,17.40
2019-05-30T10:36:47.353Z,16.00
2019-05-30T10:39:20.808Z,13.00
2019-05-30T10:41:53.642Z,17.80
2019-05-30T10:44:26.633Z,15.20
2019-05-30T10:46:59.620Z,14.60
2019-05-30T10:49:35.026Z,13.40
2019-05-30T10:52:07.082Z,13.00
2019-05-30T10:54:39.959Z,16.80
2019-05-30T10:57:12.857Z,18.40
2019-05-30T10:59:46.158Z,19.20
2019-05-30T11:02:20.164Z,19.00
2019-05-30T11:04:53.210Z,19.00
2019-05-30T11:08:00.150Z,17.00
2019-05-30T11:10:34.703Z,17.40
2019-05-30T11:13:10.327Z,18.00
2019-05-30T11:15:43.568Z,24.40
2019-05-30T11:18:16.400Z,12.80
2019-05-30T11:20:49.942Z,18.40
2019-05-30T11:23:22.875Z,14.00
2019-05-30T11:25:57.120Z,15.40
2019-05-30T11:28:30.032Z,14.60
2019-05-30T11:31:04.741Z,13.80
2019-05-30T11:33:37.733Z,14.40
2019-05-30T11:36:10.622Z,10.40
2019-05-30T11:38:43.492Z,13.20
2019-05-30T11:41:16.804Z,14.60
2019-05-30T11:43:49.739Z,15.40
2019-05-30T11:46:23.109Z,13.20
2019-05-30T11:48:56.018Z,16.80
2019-05-30T11:51:29.175Z,15.40
2019-05-30T11:54:02.020Z,16.40
2019-05-30T11:56:34.934Z,15.60
2019-05-30T11:59:07.917Z,16.60
2019-05-30T12:01:40.839Z,15.60
2019-05-30T12:04:13.684Z,13.00
2019-05-30T12:06:46.838Z,12.60
2019-05-30T12:09:19.696Z,13.20
2019-05-30T12:11:53.123Z,16.80
2019-05-30T12:14:26.078Z,18.40
2019-05-30T12:16:59.430Z,13.20
2019-05-30T12:19:32.459Z,17.40
2019-05-30T12:22:06.498Z,15.60
2019-05-30T12:24:39.337Z,16.80
2019-05-30T12:27:12.224Z,18.00
2019-05-30T12:29:45.137Z,14.80
2019-05-30T12:32:18.102Z,19.80
2019-05-30T12:34:52.260Z,17.20
2019-05-30T12:37:25.353Z,12.60
2019-05-30T12:39:58.667Z,14.20
2019-05-30T12:42:31.647Z,16.40
2019-05-30T12:45:07.359Z,22.20
2019-05-30T12:47:40.052Z,21.40
2019-05-30T12:50:16.528Z,17.20
2019-05-30T12:52:48.401Z,20.60
2019-05-30T12:55:21.393Z,20.20
2019-05-30T12:57:54.678Z,24.80
2019-05-30T13:00:28.516Z,18.60
2019-05-30T13:03:02.991Z,27.00
2019-05-30T13:05:36.081Z,20.60
2019-05-30T13:08:20.559Z,19.60
2019-05-30T13:10:43.858Z,23.40
2019-05-30T13:13:16.736Z,21.20
2019-05-30T13:15:49.655Z,20.40
2019-05-30T13:18:22.685Z,22.80
2019-05-30T13:20:55.982Z,11.20
2019-05-30T13:23:29.063Z,22.40
2019-05-30T13:26:02.048Z,20.60
2019-05-30T13:28:34.953Z,18.80
2019-05-30T13:31:07.791Z,19.80
2019-05-30T13:33:40.779Z,16.00
2019-05-30T13:36:13.623Z,14.00
2019-05-30T13:38:46.577Z,34.80
2019-05-30T13:41:20.104Z,18.60
2019-05-30T13:43:53.028Z,18.80
2019-05-30T13:46:26.184Z,17.80
2019-05-30T13:49:00.657Z,18.80
2019-05-30T13:51:33.625Z,21.20
2019-05-30T13:54:07.291Z,21.60
2019-05-30T13:56:40.131Z,21.60
2019-05-30T13:59:13.023Z,19.80
2019-05-30T14:01:46.207Z,19.80
2019-05-30T14:04:19.216Z,23.80
2019-05-30T14:06:52.042Z,22.00
2019-05-30T14:09:25.286Z,20.60
2019-05-30T14:11:58.121Z,21.20
2019-05-30T14:14:31.000Z,20.40
2019-05-30T14:17:04.787Z,20.20
2019-05-30T14:19:38.667Z,18.80
2019-05-30T14:22:11.509Z,20.80
2019-05-30T14:24:45.330Z,18.00
2019-05-30T14:27:18.185Z,20.60
2019-05-30T14:29:52.554Z,22.80
2019-05-30T14:32:25.411Z,23.40
2019-05-30T14:35:00.036Z,23.20
2019-05-30T14:37:32.877Z,25.00
2019-05-30T14:40:08.804Z,21.20
2019-05-30T14:42:41.793Z,22.20
2019-05-30T14:45:18.038Z,22.60
2019-05-30T14:47:50.882Z,25.80
2019-05-30T14:50:25.259Z,26.80
2019-05-30T14:52:58.098Z,24.20
2019-05-30T14:55:34.189Z,24.60
2019-05-30T14:58:07.175Z,24.60
2019-05-30T15:00:42.700Z,26.20
2019-05-30T15:03:19.381Z,27.60
2019-05-30T15:05:53.378Z,34.40
2019-05-30T15:08:26.223Z,26.00
2019-05-30T15:11:00.823Z,30.80
2019-05-30T15:13:33.651Z,27.00
2019-05-30T15:16:13.539Z,23.40
2019-05-30T15:18:48.085Z,24.00
2019-05-30T15:21:21.986Z,24.40
2019-05-30T15:23:54.892Z,24.40
2019-05-30T15:26:27.854Z,21.40
2019-05-30T15:29:00.685Z,25.20
2019-05-30T15:31:33.564Z,24.00
2019-05-30T15:34:06.466Z,23.20
2019-05-30T15:39:32.399Z,19.20
2019-05-30T15:41:58.491Z,17.00
2019-05-30T15:44:31.425Z,20.60
2019-05-30T15:47:04.266Z,22.20
2019-05-30T15:49:37.720Z,22.40
2019-05-30T15:52:11.663Z,23.20
2019-05-30T15:54:45.289Z,23.40
2019-05-30T15:57:19.373Z,22.80
2019-05-30T15:59:52.529Z,20.40
2019-05-30T16:02:24.875Z,19.60
2019-05-30T16:04:57.720Z,25.40
2019-05-30T16:07:30.557Z,24.20
2019-05-30T16:10:04.203Z,27.20
2019-05-30T16:12:36.231Z,22.00
2019-05-30T16:15:09.354Z,16.80
2019-05-30T16:17:42.192Z,15.40
2019-05-30T16:20:15.933Z,13.20
2019-05-30T16:22:48.835Z,14.20
2019-05-30T16:25:21.894Z,18.60
2019-05-30T16:27:55.133Z,16.60
2019-05-30T16:30:28.088Z,15.20
2019-05-30T16:33:00.928Z,14.60
2019-05-30T16:35:33.828Z,13.40
2019-05-30T16:38:06.647Z,14.20
2019-05-30T16:40:39.969Z,18.40
2019-05-30T16:43:14.145Z,12.00
2019-05-30T16:45:47.121Z,8.00
2019-05-30T16:48:20.482Z,11.60
2019-05-30T16:50:53.414Z,10.20
2019-05-30T16:53:27.342Z,15.60
2019-05-30T16:56:00.608Z,12.40
2019-05-30T16:58:33.720Z,8.60
2019-05-30T17:01:06.628Z,8.00
2019-05-30T17:03:39.533Z,13.00
2019-05-30T17:06:12.650Z,8.80
2019-05-30T17:08:45.469Z,12.00
2019-05-30T17:11:19.307Z,9.80
2019-05-30T17:13:52.259Z,8.60
2019-05-30T17:16:26.282Z,9.00
2019-05-30T17:18:59.573Z,10.60
2019-05-30T17:21:32.516Z,10.60
2019-05-30T17:24:05.419Z,9.80
2019-05-30T17:26:38.592Z,8.40
2019-05-30T17:29:11.419Z,9.80
2019-05-30T17:31:44.304Z,10.80
2019-05-30T17:34:17.782Z,9.40
2019-05-30T17:36:50.701Z,9.80
2019-05-30T17:39:24.571Z,11.60
2019-05-30T17:41:57.670Z,11.20
2019-05-30T17:44:30.496Z,10.40
2019-05-30T17:47:03.449Z,8.80
2019-05-30T17:49:36.312Z,12.00
2019-05-30T17:52:09.196Z,12.80
2019-05-30T17:54:43.383Z,10.60
2019-05-30T17:57:16.395Z,10.60
2019-05-30T17:59:49.224Z,10.00
2019-05-30T18:02:22.410Z,10.00
2019-05-30T18:04:55.234Z,9.80
2019-05-30T18:07:29.137Z,12.20
2019-05-30T18:10:02.034Z,9.40
2019-05-30T18:12:34.990Z,7.80
2019-05-30T18:15:09.146Z,9.00
2019-05-30T18:17:42.107Z,11.80
2019-05-30T18:20:15.492Z,8.80
2019-05-30T18:22:48.465Z,9.60
2019-05-30T18:25:22.051Z,9.60
2019-05-30T18:27:55.073Z,8.00
2019-05-30T18:30:39.802Z,9.60
2019-05-30T18:33:12.685Z,9.00
2019-05-30T18:35:45.498Z,8.80
2019-05-30T18:38:18.382Z,9.00
2019-05-30T18:40:51.288Z,12.40
2019-05-30T18:43:24.732Z,7.00
2019-05-30T18:45:57.546Z,6.80
2019-05-30T18:48:31.541Z,6.20
2019-05-30T18:51:04.795Z,7.20
2019-05-30T18:53:40.235Z,5.00
2019-05-30T18:56:13.071Z,7.20
2019-05-30T18:58:45.994Z,6.00
2019-05-30T19:01:18.823Z,4.00
2019-05-30T19:03:52.006Z,6.00
2019-05-30T19:06:25.666Z,4.80
2019-05-30T19:08:58.584Z,5.40
2019-05-30T19:11:34.978Z,6.80
2019-05-30T19:14:06.365Z,7.40
2019-05-30T19:16:39.266Z,7.20
2019-05-30T19:19:12.127Z,5.60
2019-05-30T19:21:44.957Z,7.20
2019-05-30T19:24:18.135Z,6.80
2019-05-30T19:26:50.958Z,6.40
2019-05-30T19:29:23.822Z,4.40
2019-05-30T19:31:56.651Z,8.00
2019-05-30T19:34:30.736Z,7.60
2019-05-30T19:37:03.666Z,7.00
2019-05-30T19:39:37.764Z,7.00
2019-05-30T19:42:10.675Z,7.40
2019-05-30T19:44:43.850Z,6.40
2019-05-30T19:47:16.662Z,8.80
2019-05-30T19:49:49.540Z,8.00
2019-05-30T19:52:22.371Z,10.20
2019-05-30T19:54:55.323Z,7.60
2019-05-30T19:57:29.333Z,7.80
2019-05-30T20:00:02.676Z,7.80
2019-05-30T20:02:36.111Z,7.40
2019-05-30T20:05:09.611Z,8.00
2019-05-30T20:07:42.445Z,8.20
2019-05-30T20:10:15.987Z,8.80
2019-05-30T20:12:48.886Z,6.40
2019-05-30T20:15:22.418Z,7.80
2019-05-30T20:17:55.262Z,5.60
2019-05-30T20:20:28.227Z,8.20
2019-05-30T20:23:01.063Z,7.00
2019-05-30T20:25:34.474Z,9.40
2019-05-30T20:28:07.607Z,9.40
2019-05-30T20:30:41.215Z,7.20
2019-05-30T20:33:14.075Z,7.80
2019-05-30T20:35:47.179Z,7.00
2019-05-30T20:38:20.008Z,7.00
2019-05-30T20:40:52.953Z,9.00
2019-05-30T20:43:25.781Z,9.00
2019-05-30T20:45:59.077Z,8.80
2019-05-30T20:48:31.904Z,10.80
2019-05-30T20:51:04.885Z,10.00
2019-05-30T20:53:37.718Z,7.80
2019-05-30T20:56:11.041Z,9.20
2019-05-30T20:58:43.955Z,9.80
2019-05-30T21:01:16.819Z,7.20
2019-05-30T21:03:49.718Z,7.40
2019-05-30T21:06:23.429Z,9.20
2019-05-30T21:08:58.232Z,11.60
2019-05-30T21:11:32.885Z,11.20
2019-05-30T21:14:05.778Z,9.00
2019-05-30T21:16:41.946Z,8.00
2019-05-30T21:19:15.035Z,12.80
2019-05-30T21:21:48.028Z,8.40
2019-05-30T21:24:21.099Z,10.40
2019-05-30T21:26:54.110Z,10.40
2019-05-30T21:29:26.937Z,6.00
2019-05-30T21:32:00.059Z,10.80
2019-05-30T21:34:32.942Z,15.00
2019-05-30T21:37:05.958Z,8.00
2019-05-30T21:39:39.999Z,8.40
2019-05-30T21:42:12.999Z,8.80
2019-05-30T21:44:49.742Z,10.40
2019-05-30T21:47:20.718Z,8.80
2019-05-30T21:49:53.640Z,12.80
2019-05-30T21:52:26.549Z,10.20
2019-05-30T21:55:03.043Z,9.80
2019-05-30T21:57:34.316Z,10.00
2019-05-30T22:00:09.984Z,10.00
2019-05-30T22:02:48.635Z,10.00
2019-05-30T22:05:21.708Z,8.60
2019-05-30T22:07:54.715Z,9.80
2019-05-30T22:10:27.695Z,12.00
2019-05-30T22:13:09.167Z,12.20
2019-05-30T22:15:35.566Z,10.20
2019-05-30T22:18:08.511Z,11.00
2019-05-30T22:20:41.765Z,10.00
2019-05-30T22:23:14.988Z,12.20
2019-05-30T22:25:48.263Z,9.40
2019-05-30T22:28:21.425Z,13.40
2019-05-30T22:30:54.685Z,12.20
2019-05-30T22:33:27.978Z,12.40
2019-05-30T22:36:00.929Z,13.40
2019-05-30T22:38:33.987Z,15.00
2019-05-30T22:41:07.018Z,14.00
2019-05-30T22:43:39.957Z,11.80
2019-05-30T22:46:13.017Z,15.40
2019-05-30T22:48:46.528Z,8.80
2019-05-30T22:51:19.481Z,16.40
2019-05-30T22:53:53.362Z,12.40
2019-05-30T22:56:26.339Z,12.60
2019-05-30T22:58:59.484Z,11.20
2019-05-30T23:01:32.356Z,14.80
2019-05-30T23:04:05.404Z,14.00
2019-05-30T23:06:38.678Z,10.00
2019-05-30T23:09:11.635Z,11.40
2019-05-30T23:11:45.561Z,10.40
2019-05-30T23:14:18.635Z,11.40
2019-05-30T23:16:52.364Z,7.80
2019-05-30T23:19:25.399Z,11.20
2019-05-30T23:21:58.427Z,8.20
2019-05-30T23:24:32.027Z,10.20
2019-05-30T23:27:08.132Z,11.00
2019-05-30T23:29:39.948Z,12.60
2019-05-30T23:32:13.176Z,12.60
2019-05-30T23:34:46.157Z,12.80
2019-05-30T23:37:19.000Z,11.20
2019-05-30T23:39:52.645Z,11.60
2019-05-30T23:42:25.778Z,13.20
2019-05-30T23:44:59.590Z,11.60
2019-05-30T23:47:32.648Z,14.40
2019-05-30T23:50:07.348Z,10.20
2019-05-30T23:52:40.346Z,15.00
2019-05-30T23:55:13.416Z,13.00
2019-05-30T23:57:46.318Z,14.00
